EmailTwitter


Observations de surface / Québec / CYUL (71627)

Régions: Québec | Canada | États-Unis | Europe | France | UK | Ailleurs
Station
Affichage
Infos & localisation pour CYUL (71627) | Aide pour décoder les METARs

Observations prises le 2019-04-22 à 06H00 UTC à MONTREAL INTL A, QB (CYUL)

Etat du ciel: quelques nuages.

Température: 8.0 Celsius

Point de rosée: 6.0 Celsius

Humidité relative: 87%

Vents: Sud-sud-ouest à 4 km/h ou 2 noeuds.

Pression au niveau moyen de la mer: 102.21 kilopascals.

Calage altimétrique: 102.20 kilopascals ou 30.18 pouces de mercure.

Visibilité horizontale: 15.00 milles terrestres ou 24.00 kilomètres.

Observation METAR:

CYUL 220600Z 20002KT 15SM FEW032 FEW100 08/06 A3018 RMK SC1AC1 AC TR SLP221=